createdAt,value
2022-12-23T00:01:07.602Z,8.96
2022-12-23T00:03:35.255Z,8.96
2022-12-23T00:06:07.561Z,8.96
2022-12-23T00:08:34.556Z,8.97
2022-12-23T00:11:01.251Z,8.96
2022-12-23T00:13:46.303Z,8.97
2022-12-23T00:16:14.424Z,8.98
2022-12-23T00:18:41.786Z,8.98
2022-12-23T00:21:11.824Z,8.97
2022-12-23T00:23:40.310Z,8.97
2022-12-23T00:26:07.652Z,8.98
2022-12-23T00:28:34.005Z,8.97
2022-12-23T00:31:01.877Z,8.96
2022-12-23T00:33:31.110Z,8.94
2022-12-23T00:35:57.741Z,8.94
2022-12-23T00:38:43.377Z,8.93
2022-12-23T00:41:34.322Z,8.91
2022-12-23T00:44:01.331Z,8.92
2022-12-23T00:46:28.383Z,8.89
2022-12-23T00:49:13.484Z,8.86
2022-12-23T00:51:40.132Z,8.88
2022-12-23T00:54:06.829Z,8.88
2022-12-23T00:56:33.509Z,8.85
2022-12-23T00:59:00.151Z,8.84
2022-12-23T01:01:45.261Z,8.85
2022-12-23T01:04:32.945Z,8.84
2022-12-23T01:06:59.952Z,8.82
2022-12-23T01:09:26.629Z,8.82
2022-12-23T01:11:53.391Z,8.81
2022-12-23T01:14:20.539Z,8.79
2022-12-23T01:16:47.157Z,8.80
2022-12-23T01:19:13.715Z,8.78
2022-12-23T01:21:41.552Z,8.80
2022-12-23T01:24:08.602Z,8.79
2022-12-23T01:26:35.944Z,8.78
2022-12-23T01:29:02.403Z,8.76
2022-12-23T01:31:29.892Z,8.77
2022-12-23T01:33:56.718Z,8.77
2022-12-23T01:36:23.760Z,8.76
2022-12-23T01:38:50.485Z,8.78
2022-12-23T01:41:43.226Z,8.76
2022-12-23T01:44:46.904Z,8.76
2022-12-23T01:47:20.026Z,8.76
2022-12-23T01:49:47.383Z,8.73
2022-12-23T01:52:14.599Z,8.73
2022-12-23T01:54:41.825Z,8.74
2022-12-23T01:57:12.084Z,8.73
2022-12-23T01:59:58.140Z,8.72
2022-12-23T02:02:45.075Z,8.71
2022-12-23T02:05:12.078Z,8.70
2022-12-23T02:07:57.700Z,8.69
2022-12-23T02:10:30.930Z,8.69
2022-12-23T02:13:08.847Z,8.68
2022-12-23T02:16:15.163Z,8.68
2022-12-23T02:19:01.113Z,8.66
2022-12-23T02:21:39.754Z,8.65
2022-12-23T02:24:30.291Z,8.64
2022-12-23T02:27:08.619Z,8.61
2022-12-23T02:30:02.416Z,8.61
2022-12-23T02:32:40.223Z,8.59
2022-12-23T02:35:54.359Z,8.55
2022-12-23T02:38:30.101Z,8.55
2022-12-23T02:41:34.254Z,8.54
2022-12-23T02:44:11.962Z,8.53
2022-12-23T02:46:54.516Z,8.52
2022-12-23T02:49:30.718Z,8.50
2022-12-23T02:52:01.510Z,8.49
2022-12-23T02:54:35.053Z,8.49
2022-12-23T02:57:04.830Z,8.45
2022-12-23T02:59:44.046Z,8.41
2022-12-23T03:02:10.583Z,8.37
2022-12-23T03:04:38.102Z,8.32
2022-12-23T03:07:08.036Z,8.31
2022-12-23T03:10:03.609Z,8.26
2022-12-23T03:12:56.066Z,8.25
2022-12-23T03:15:41.225Z,8.22
2022-12-23T03:18:41.036Z,8.18
2022-12-23T03:21:14.668Z,8.13
2022-12-23T03:23:55.253Z,8.12
2022-12-23T03:26:30.390Z,8.09
2022-12-23T03:29:02.753Z,8.08
2022-12-23T03:31:31.485Z,8.08
2022-12-23T03:34:08.341Z,8.07
2022-12-23T03:36:40.287Z,8.09
2022-12-23T03:39:12.949Z,8.10
2022-12-23T03:41:47.118Z,8.07
2022-12-23T03:44:22.368Z,8.04
2022-12-23T03:46:54.797Z,8.04
2022-12-23T03:49:30.093Z,8.02
2022-12-23T03:52:02.779Z,8.01
2022-12-23T03:54:40.357Z,8.01
2022-12-23T03:57:08.680Z,7.99
2022-12-23T03:59:39.014Z,8.00
2022-12-23T04:02:23.481Z,8.01
2022-12-23T04:05:06.118Z,8.01
2022-12-23T04:07:41.669Z,8.00
2022-12-23T04:10:09.546Z,7.99
2022-12-23T04:12:36.741Z,7.98
2022-12-23T04:15:09.015Z,8.01
2022-12-23T04:17:38.826Z,7.99
2022-12-23T04:20:06.929Z,7.98
2022-12-23T04:22:33.402Z,8.00
2022-12-23T04:24:59.867Z,8.01
2022-12-23T04:27:26.292Z,8.02
2022-12-23T04:29:52.883Z,8.02
2022-12-23T04:32:19.244Z,8.04
2022-12-23T04:34:45.646Z,8.04
2022-12-23T04:37:12.130Z,8.04
2022-12-23T04:39:38.555Z,8.03
2022-12-23T04:42:04.998Z,8.04
2022-12-23T04:44:31.403Z,8.03
2022-12-23T04:46:58.017Z,8.05
2022-12-23T04:49:24.416Z,8.05
2022-12-23T04:51:50.962Z,8.05
2022-12-23T04:54:17.330Z,8.05
2022-12-23T04:56:43.747Z,8.06
2022-12-23T04:59:10.804Z,8.08
2022-12-23T05:01:37.389Z,8.06
2022-12-23T05:04:03.999Z,8.06
2022-12-23T05:06:30.477Z,8.07
2022-12-23T05:08:56.828Z,8.08
2022-12-23T05:11:23.325Z,8.09
2022-12-23T05:13:49.707Z,8.07
2022-12-23T05:16:16.146Z,8.08
2022-12-23T05:18:42.724Z,8.09
2022-12-23T05:21:09.163Z,8.10
2022-12-23T05:23:35.720Z,8.11
2022-12-23T05:26:02.156Z,8.11
2022-12-23T05:28:29.083Z,8.11
2022-12-23T05:31:03.972Z,8.10
2022-12-23T05:33:30.609Z,8.11
2022-12-23T05:35:58.033Z,8.10
2022-12-23T05:38:25.213Z,8.10
2022-12-23T05:40:51.751Z,8.11
2022-12-23T05:43:18.530Z,8.08
2022-12-23T05:45:45.194Z,8.08
2022-12-23T05:48:11.635Z,8.10
2022-12-23T05:50:39.100Z,8.10
2022-12-23T05:53:06.914Z,8.10
2022-12-23T05:55:33.446Z,8.11
2022-12-23T05:57:59.964Z,8.11
2022-12-23T06:00:26.629Z,8.09
2022-12-23T06:02:54.138Z,8.07
2022-12-23T06:05:21.215Z,8.05
2022-12-23T06:07:47.660Z,8.04
2022-12-23T06:10:13.999Z,8.05
2022-12-23T06:12:40.432Z,8.04
2022-12-23T06:15:07.265Z,8.06
2022-12-23T06:17:33.658Z,8.04
2022-12-23T06:20:00.126Z,8.03
2022-12-23T06:22:26.592Z,8.03
2022-12-23T06:24:53.101Z,8.04
2022-12-23T06:27:19.524Z,8.06
2022-12-23T06:29:46.063Z,8.08
2022-12-23T06:32:12.482Z,8.06
2022-12-23T06:34:38.980Z,8.08
2022-12-23T06:37:05.446Z,8.07
2022-12-23T06:39:31.909Z,8.07
2022-12-23T06:41:58.498Z,8.06
2022-12-23T06:44:24.887Z,8.05
2022-12-23T06:46:51.307Z,8.03
2022-12-23T06:49:17.696Z,8.04
2022-12-23T06:51:44.125Z,8.05
2022-12-23T06:54:11.948Z,8.02
2022-12-23T06:56:39.056Z,8.02
2022-12-23T06:59:05.717Z,8.03
2022-12-23T07:01:32.220Z,8.05
2022-12-23T07:03:58.686Z,8.02
2022-12-23T07:06:25.025Z,8.01
2022-12-23T07:08:51.437Z,7.99
2022-12-23T07:11:18.521Z,8.00
2022-12-23T07:13:46.447Z,8.01
2022-12-23T07:16:13.456Z,7.98
2022-12-23T07:18:40.265Z,7.99
2022-12-23T07:21:13.356Z,7.96
2022-12-23T07:23:44.436Z,7.96
2022-12-23T07:26:10.757Z,7.94
2022-12-23T07:28:37.211Z,7.93
2022-12-23T07:31:06.338Z,7.94
2022-12-23T07:33:32.840Z,7.95
2022-12-23T07:35:59.684Z,7.94
2022-12-23T07:38:26.251Z,7.95
2022-12-23T07:40:52.683Z,7.98
2022-12-23T07:43:19.053Z,7.96
2022-12-23T07:45:45.437Z,8.00
2022-12-23T07:48:11.888Z,7.99
2022-12-23T07:50:38.229Z,8.01
2022-12-23T07:53:04.676Z,8.01
2022-12-23T07:55:31.171Z,8.00
2022-12-23T07:57:57.691Z,8.01
2022-12-23T08:00:24.080Z,7.98
2022-12-23T08:02:50.661Z,7.98
2022-12-23T08:05:17.319Z,8.01
2022-12-23T08:07:45.205Z,8.00
2022-12-23T08:10:12.035Z,8.03
2022-12-23T08:12:38.506Z,8.05
2022-12-23T08:15:05.535Z,8.04
2022-12-23T08:17:31.945Z,8.04
2022-12-23T08:19:58.406Z,8.04
2022-12-23T08:22:24.903Z,8.00
2022-12-23T08:24:52.584Z,7.99
2022-12-23T08:27:19.241Z,7.99
2022-12-23T08:29:45.690Z,8.00
2022-12-23T08:32:12.392Z,7.99
2022-12-23T08:34:38.941Z,7.99
2022-12-23T08:37:05.688Z,7.97
2022-12-23T08:39:32.258Z,7.97
2022-12-23T08:41:58.796Z,7.97
2022-12-23T08:44:27.875Z,8.00
2022-12-23T08:46:54.910Z,8.02
2022-12-23T08:49:21.370Z,8.01
2022-12-23T08:51:48.261Z,8.00
2022-12-23T08:54:15.436Z,8.02
2022-12-23T08:56:42.396Z,8.04
2022-12-23T08:59:19.584Z,8.02
2022-12-23T09:01:47.721Z,8.03
2022-12-23T09:04:14.547Z,8.03
2022-12-23T09:06:42.254Z,8.01
2022-12-23T09:09:10.543Z,8.01
2022-12-23T09:11:37.770Z,8.00
2022-12-23T09:14:05.460Z,7.99
2022-12-23T09:16:32.069Z,8.00
2022-12-23T09:18:58.677Z,8.03
2022-12-23T09:21:25.372Z,8.05
2022-12-23T09:23:52.331Z,8.08
2022-12-23T09:26:24.353Z,8.09
2022-12-23T09:28:51.005Z,8.09
2022-12-23T09:31:18.663Z,8.09
2022-12-23T09:33:50.616Z,8.08
2022-12-23T09:36:17.920Z,8.07
2022-12-23T09:38:44.744Z,8.08
2022-12-23T09:41:48.782Z,8.08
2022-12-23T09:44:33.937Z,8.07
2022-12-23T09:47:04.436Z,8.10
2022-12-23T09:49:30.951Z,8.13
2022-12-23T09:52:01.724Z,8.11
2022-12-23T09:54:32.135Z,8.12
2022-12-23T09:57:03.642Z,8.13
2022-12-23T09:59:38.908Z,8.15
2022-12-23T10:02:34.609Z,8.16
2022-12-23T10:05:16.200Z,8.20
2022-12-23T10:07:54.769Z,8.20
2022-12-23T10:10:48.163Z,8.22
2022-12-23T10:13:39.444Z,8.21
2022-12-23T10:16:20.386Z,8.23
2022-12-23T10:19:15.317Z,8.25
2022-12-23T10:21:48.185Z,8.26
2022-12-23T10:24:22.521Z,8.26
2022-12-23T10:26:54.405Z,8.31
2022-12-23T10:29:24.179Z,8.33
2022-12-23T10:32:20.904Z,8.31
2022-12-23T10:35:24.282Z,8.32
2022-12-23T10:38:23.020Z,8.35
2022-12-23T10:41:20.461Z,8.37
2022-12-23T10:43:57.864Z,8.39
2022-12-23T10:46:45.103Z,8.40
2022-12-23T10:49:37.808Z,8.40
2022-12-23T10:52:14.385Z,8.39
2022-12-23T10:54:43.996Z,8.38
2022-12-23T10:57:12.191Z,8.39
2022-12-23T10:59:38.798Z,8.41
2022-12-23T11:02:15.145Z,8.40
2022-12-23T11:04:47.295Z,8.41
2022-12-23T11:07:46.962Z,8.43
2022-12-23T11:10:19.804Z,8.44
2022-12-23T11:12:49.503Z,8.46
2022-12-23T11:15:36.984Z,8.44
2022-12-23T11:18:07.808Z,8.45
2022-12-23T11:20:35.698Z,8.46
2022-12-23T11:23:03.924Z,8.46
2022-12-23T11:25:32.184Z,8.49
2022-12-23T11:28:10.771Z,8.48
2022-12-23T11:30:59.322Z,8.50
2022-12-23T11:33:27.369Z,8.51
2022-12-23T11:36:17.345Z,8.50
2022-12-23T11:38:51.665Z,8.50
2022-12-23T11:41:25.089Z,8.52
2022-12-23T11:44:00.581Z,8.51
2022-12-23T11:46:33.745Z,8.53
2022-12-23T11:49:13.317Z,8.54
2022-12-23T11:51:39.768Z,8.55
2022-12-23T11:54:06.171Z,8.55
2022-12-23T11:56:38.383Z,8.56
2022-12-23T11:59:18.658Z,8.57
2022-12-23T12:01:48.992Z,8.58
2022-12-23T12:04:23.737Z,8.58
2022-12-23T12:06:56.371Z,8.58
2022-12-23T12:09:24.737Z,8.58
2022-12-23T12:12:17.309Z,8.58
2022-12-23T12:14:54.208Z,8.59
2022-12-23T12:17:49.300Z,8.59
2022-12-23T12:20:30.557Z,8.59
2022-12-23T12:23:06.809Z,8.60
2022-12-23T12:25:42.166Z,8.57
2022-12-23T12:28:18.074Z,8.58
2022-12-23T12:30:52.082Z,8.58
2022-12-23T12:33:25.399Z,8.57
2022-12-23T12:36:34.495Z,8.55
2022-12-23T12:39:01.034Z,8.55
2022-12-23T12:41:37.082Z,8.54
2022-12-23T12:44:15.707Z,8.53
2022-12-23T12:46:50.854Z,8.55
2022-12-23T12:49:36.188Z,8.54
2022-12-23T12:52:19.404Z,8.54
2022-12-23T12:54:52.851Z,8.51
2022-12-23T12:57:22.438Z,8.52
2022-12-23T12:59:59.945Z,8.52
2022-12-23T13:03:07.817Z,8.51
2022-12-23T13:05:56.558Z,8.52
2022-12-23T13:08:48.606Z,8.52
2022-12-23T13:11:45.196Z,8.52
2022-12-23T13:14:30.647Z,8.54
2022-12-23T13:17:12.479Z,8.54
2022-12-23T13:19:45.990Z,8.53
2022-12-23T13:22:18.120Z,8.54
2022-12-23T13:25:05.782Z,8.54
2022-12-23T13:27:44.861Z,8.53
2022-12-23T13:30:17.849Z,8.54
2022-12-23T13:33:05.139Z,8.53
2022-12-23T13:36:05.662Z,8.54
2022-12-23T13:38:44.615Z,8.53
2022-12-23T13:41:29.725Z,8.51
2022-12-23T13:44:09.534Z,8.52
2022-12-23T13:46:42.138Z,8.54
2022-12-23T13:49:42.886Z,8.54
2022-12-23T13:52:24.583Z,8.53
2022-12-23T13:55:06.086Z,8.52
2022-12-23T13:57:53.741Z,8.51
2022-12-23T14:00:20.184Z,8.52
2022-12-23T14:03:09.500Z,8.49
2022-12-23T14:05:41.150Z,8.49
2022-12-23T14:08:19.810Z,8.49
2022-12-23T14:11:00.610Z,8.50
2022-12-23T14:13:42.137Z,8.51
2022-12-23T14:16:29.508Z,8.52
2022-12-23T14:18:58.902Z,8.53
2022-12-23T14:21:43.909Z,8.56
2022-12-23T14:24:16.194Z,8.60
2022-12-23T14:26:45.627Z,8.63
2022-12-23T14:29:14.904Z,8.62
2022-12-23T14:31:45.245Z,8.64
2022-12-23T14:34:17.489Z,8.64
2022-12-23T14:37:16.590Z,8.58
2022-12-23T14:39:43.821Z,8.58
2022-12-23T14:42:15.000Z,8.54
2022-12-23T14:44:46.287Z,8.53
2022-12-23T14:47:33.824Z,8.53
2022-12-23T14:50:42.582Z,8.55
2022-12-23T14:53:26.347Z,8.54
2022-12-23T14:56:10.989Z,8.54
2022-12-23T14:58:39.418Z,8.56
2022-12-23T15:01:12.873Z,8.56
2022-12-23T15:03:46.822Z,8.57
2022-12-23T15:06:20.643Z,8.55
2022-12-23T15:08:50.762Z,8.54
2022-12-23T15:11:28.660Z,8.50
2022-12-23T15:13:57.033Z,8.50
2022-12-23T15:16:31.584Z,8.49
2022-12-23T15:19:02.214Z,8.49
2022-12-23T15:21:31.715Z,8.49
2022-12-23T15:23:58.447Z,8.48
2022-12-23T15:26:28.836Z,8.46
2022-12-23T15:28:57.356Z,8.44
2022-12-23T15:31:31.288Z,8.44
2022-12-23T15:34:03.922Z,8.41
2022-12-23T15:36:37.607Z,8.38
2022-12-23T15:39:09.879Z,8.41
2022-12-23T15:41:47.138Z,8.41
2022-12-23T15:44:20.258Z,8.40
2022-12-23T15:46:46.799Z,8.37
2022-12-23T15:49:13.478Z,8.38
2022-12-23T15:54:36.783Z,8.36
2022-12-23T15:57:04.547Z,8.39
2022-12-23T15:59:38.256Z,8.40
2022-12-23T16:02:59.214Z,8.42
2022-12-23T16:05:31.118Z,8.41
2022-12-23T16:08:16.202Z,8.40
2022-12-23T16:10:55.334Z,8.41
2022-12-23T16:13:21.818Z,8.42
2022-12-23T16:15:48.401Z,8.42
2022-12-23T16:18:31.656Z,8.43
2022-12-23T16:21:02.244Z,8.41
2022-12-23T16:23:31.105Z,8.40
2022-12-23T16:26:00.273Z,8.42
2022-12-23T16:28:29.866Z,8.41
2022-12-23T16:30:58.373Z,8.41
2022-12-23T16:33:30.619Z,8.40
2022-12-23T16:36:26.047Z,8.39
2022-12-23T16:38:56.228Z,8.40
2022-12-23T16:41:22.944Z,8.40
2022-12-23T16:43:52.459Z,8.39
2022-12-23T16:46:21.854Z,8.38
2022-12-23T16:48:55.624Z,8.37
2022-12-23T16:51:23.041Z,8.39
2022-12-23T16:53:51.183Z,8.41
2022-12-23T16:56:20.970Z,8.43
2022-12-23T16:58:47.822Z,8.42
2022-12-23T17:01:18.436Z,8.40
2022-12-23T17:03:44.844Z,8.40
2022-12-23T17:06:13.944Z,8.40
2022-12-23T17:08:40.889Z,8.39
2022-12-23T17:11:17.372Z,8.38
2022-12-23T17:13:44.610Z,8.39
2022-12-23T17:16:19.217Z,8.41
2022-12-23T17:18:49.766Z,8.40
2022-12-23T17:21:28.926Z,8.40
2022-12-23T17:24:03.411Z,8.41
2022-12-23T17:26:30.055Z,8.40
2022-12-23T17:28:56.479Z,8.40
2022-12-23T17:31:27.009Z,8.41
2022-12-23T17:33:54.246Z,8.41
2022-12-23T17:36:20.839Z,8.40
2022-12-23T17:38:47.299Z,8.40
2022-12-23T17:41:22.340Z,8.41
2022-12-23T17:43:48.863Z,8.43
2022-12-23T17:46:15.418Z,8.45
2022-12-23T17:48:42.992Z,8.47
2022-12-23T17:51:15.425Z,8.52
2022-12-23T17:53:41.829Z,8.53
2022-12-23T17:56:17.409Z,8.55
2022-12-23T17:58:45.192Z,8.63
2022-12-23T18:01:40.985Z,8.65
2022-12-23T18:04:08.043Z,8.68
2022-12-23T18:06:35.017Z,8.71
2022-12-23T18:09:01.398Z,8.76
2022-12-23T18:11:34.720Z,8.80
2022-12-23T18:14:03.107Z,8.80
2022-12-23T18:16:29.996Z,8.83
2022-12-23T18:18:57.042Z,8.87
2022-12-23T18:21:28.430Z,8.93
2022-12-23T18:23:59.597Z,8.94
2022-12-23T18:26:26.281Z,9.00
2022-12-23T18:28:54.070Z,9.04
2022-12-23T18:31:23.918Z,9.08
2022-12-23T18:33:51.183Z,9.10
2022-12-23T18:36:22.179Z,9.10
2022-12-23T18:38:48.734Z,9.13
2022-12-23T18:41:15.260Z,9.18
2022-12-23T18:43:41.694Z,9.23
2022-12-23T18:46:08.236Z,9.22
2022-12-23T18:48:34.586Z,9.21
2022-12-23T18:51:01.027Z,9.20
2022-12-23T18:53:27.657Z,9.24
2022-12-23T18:55:54.800Z,9.26
2022-12-23T18:58:21.925Z,9.25
2022-12-23T19:00:50.313Z,9.26
2022-12-23T19:03:26.377Z,9.27
2022-12-23T19:05:54.585Z,9.29
2022-12-23T19:08:26.667Z,9.30
2022-12-23T19:10:54.776Z,9.30
2022-12-23T19:13:21.257Z,9.27
2022-12-23T19:15:47.739Z,9.28
2022-12-23T19:18:16.252Z,9.27
2022-12-23T19:20:43.963Z,9.25
2022-12-23T19:23:11.381Z,9.24
2022-12-23T19:25:41.797Z,9.27
2022-12-23T19:28:08.506Z,9.29
2022-12-23T19:30:35.239Z,9.29
2022-12-23T19:33:01.683Z,9.28
2022-12-23T19:35:28.270Z,9.28
2022-12-23T19:37:54.740Z,9.29
2022-12-23T19:40:21.567Z,9.30
2022-12-23T19:42:48.037Z,9.31
2022-12-23T19:45:14.433Z,9.28
2022-12-23T19:47:40.915Z,9.31
2022-12-23T19:50:08.218Z,9.32
2022-12-23T19:52:34.875Z,9.31
2022-12-23T19:55:01.394Z,9.30
2022-12-23T19:57:27.878Z,9.31
2022-12-23T19:59:54.240Z,9.35
2022-12-23T20:02:20.782Z,9.35
2022-12-23T20:04:47.412Z,9.34
2022-12-23T20:07:13.850Z,9.36
2022-12-23T20:09:40.745Z,9.37
2022-12-23T20:12:07.270Z,9.40
2022-12-23T20:14:34.604Z,9.39
2022-12-23T20:17:01.349Z,9.41
2022-12-23T20:19:28.108Z,9.41
2022-12-23T20:21:54.770Z,9.40
2022-12-23T20:24:21.157Z,9.42
2022-12-23T20:26:47.898Z,9.42
2022-12-23T20:29:14.446Z,9.43
2022-12-23T20:31:41.356Z,9.43
2022-12-23T20:34:09.061Z,9.41
2022-12-23T20:36:36.443Z,9.42
2022-12-23T20:39:04.223Z,9.43
2022-12-23T20:41:31.837Z,9.43
2022-12-23T20:46:45.213Z,9.44
2022-12-23T20:49:11.974Z,9.43
2022-12-23T20:51:38.354Z,9.44
2022-12-23T20:54:04.802Z,9.45
2022-12-23T20:56:31.814Z,9.45
2022-12-23T20:58:59.455Z,9.45
2022-12-23T21:01:38.378Z,9.43
2022-12-23T21:04:07.595Z,9.45
2022-12-23T21:06:34.789Z,9.45
2022-12-23T21:09:02.476Z,9.43
2022-12-23T21:11:30.446Z,9.41
2022-12-23T21:14:02.628Z,9.43
2022-12-23T21:16:32.501Z,9.44
2022-12-23T21:18:59.984Z,9.42
2022-12-23T21:21:27.942Z,9.41
2022-12-23T21:23:56.209Z,9.40
2022-12-23T21:26:24.892Z,9.39
2022-12-23T21:28:53.461Z,9.37
2022-12-23T21:31:22.285Z,9.39
2022-12-23T21:33:49.813Z,9.40
2022-12-23T21:36:20.392Z,9.43
2022-12-23T21:38:48.145Z,9.42
2022-12-23T21:41:18.056Z,9.39
2022-12-23T21:43:44.516Z,9.38
2022-12-23T21:46:17.708Z,9.35
2022-12-23T21:48:44.994Z,9.36
2022-12-23T21:51:26.028Z,9.34
2022-12-23T21:53:54.935Z,9.34
2022-12-23T21:56:28.203Z,9.34
2022-12-23T21:58:59.195Z,9.35
2022-12-23T22:01:26.917Z,9.33
2022-12-23T22:03:54.213Z,9.31
2022-12-23T22:06:32.469Z,9.32
2022-12-23T22:08:59.772Z,9.30
2022-12-23T22:11:29.431Z,9.29
2022-12-23T22:13:57.778Z,9.27
2022-12-23T22:16:26.035Z,9.23
2022-12-23T22:18:53.128Z,9.19
2022-12-23T22:21:21.981Z,9.17
2022-12-23T22:23:49.477Z,9.14
2022-12-23T22:26:25.244Z,9.12
2022-12-23T22:28:56.206Z,9.10
2022-12-23T22:31:31.081Z,9.06
2022-12-23T22:33:57.669Z,9.02
2022-12-23T22:36:24.233Z,9.01
2022-12-23T22:38:53.295Z,8.98
2022-12-23T22:41:20.167Z,9.00
2022-12-23T22:43:46.781Z,8.98
2022-12-23T22:46:13.599Z,8.97
2022-12-23T22:48:40.233Z,8.97
2022-12-23T22:51:17.508Z,8.94
2022-12-23T22:53:44.585Z,8.92
2022-12-23T22:56:13.169Z,8.89
2022-12-23T22:58:39.851Z,8.89
2022-12-23T23:01:07.488Z,8.88
2022-12-23T23:03:33.997Z,8.93
2022-12-23T23:06:07.027Z,8.94
2022-12-23T23:08:34.862Z,8.93
2022-12-23T23:11:05.091Z,8.93
2022-12-23T23:13:34.345Z,8.93
2022-12-23T23:16:02.513Z,8.93
2022-12-23T23:18:29.982Z,8.92
2022-12-23T23:20:56.830Z,8.92
2022-12-23T23:23:23.596Z,8.91
2022-12-23T23:25:50.209Z,8.89
2022-12-23T23:28:16.674Z,8.88
2022-12-23T23:30:43.195Z,8.90
2022-12-23T23:33:10.564Z,8.88
2022-12-23T23:35:37.400Z,8.88
2022-12-23T23:38:04.119Z,8.89
2022-12-23T23:40:30.573Z,8.88
2022-12-23T23:42:57.102Z,8.87
2022-12-23T23:45:23.837Z,8.87
2022-12-23T23:47:50.429Z,8.91
2022-12-23T23:50:16.799Z,8.89
2022-12-23T23:52:43.210Z,8.92
2022-12-23T23:55:10.177Z,8.91
2022-12-23T23:57:36.668Z,8.89
